createdAt,value
2019-04-11T00:00:39.604Z,6.62
2019-04-11T00:01:16.352Z,5.97
2019-04-11T00:01:52.851Z,6.50
2019-04-11T00:02:26.903Z,5.62
2019-04-11T00:03:00.599Z,6.58
2019-04-11T00:03:33.798Z,6.30
2019-04-11T00:04:06.700Z,6.33
2019-04-11T00:04:40.117Z,6.10
2019-04-11T00:05:12.964Z,6.65
2019-04-11T00:05:45.890Z,5.87
2019-04-11T00:06:19.268Z,5.90
2019-04-11T00:06:52.058Z,6.30
2019-04-11T00:07:24.705Z,6.87
2019-04-11T00:07:59.659Z,6.72
2019-04-11T00:08:34.156Z,5.08
2019-04-11T00:09:11.281Z,6.12
2019-04-11T00:09:44.876Z,5.78
2019-04-11T00:10:17.811Z,5.37
2019-04-11T00:10:50.373Z,6.22
2019-04-11T00:11:23.902Z,5.45
2019-04-11T00:11:57.581Z,5.95
2019-04-11T00:12:30.560Z,6.10
2019-04-11T00:13:14.244Z,6.30
2019-04-11T00:13:39.048Z,5.70
2019-04-11T00:14:13.728Z,5.35
2019-04-11T00:14:46.878Z,5.87
2019-04-11T00:15:20.311Z,6.03
2019-04-11T00:15:53.020Z,7.33
2019-04-11T00:16:25.886Z,6.25
2019-04-11T00:16:58.543Z,5.95
2019-04-11T00:17:32.128Z,6.87
2019-04-11T00:18:06.072Z,5.78
2019-04-11T00:18:38.997Z,5.75
2019-04-11T00:19:12.295Z,6.42
2019-04-11T00:19:45.417Z,5.90
2019-04-11T00:20:18.106Z,6.60
2019-04-11T00:20:51.320Z,6.37
2019-04-11T00:21:24.609Z,6.90
2019-04-11T00:21:57.329Z,6.08
2019-04-11T00:22:29.940Z,6.15
2019-04-11T00:23:02.422Z,5.90
2019-04-11T00:23:34.955Z,6.60
2019-04-11T00:24:07.527Z,6.67
2019-04-11T00:24:40.088Z,6.45
2019-04-11T00:25:13.596Z,6.10
2019-04-11T00:25:47.428Z,5.85
2019-04-11T00:26:20.247Z,6.50
2019-04-11T00:26:52.798Z,6.10
2019-04-11T00:27:26.721Z,6.03
2019-04-11T00:27:59.432Z,6.00
2019-04-11T00:28:32.001Z,5.90
2019-04-11T00:29:05.838Z,6.12
2019-04-11T00:29:38.875Z,6.25
2019-04-11T00:30:12.269Z,5.87
2019-04-11T00:30:44.844Z,6.40
2019-04-11T00:31:17.398Z,6.03
2019-04-11T00:31:49.944Z,6.72
2019-04-11T00:32:22.499Z,6.20
2019-04-11T00:32:56.053Z,5.85
2019-04-11T00:33:29.885Z,7.20
2019-04-11T00:34:02.866Z,5.65
2019-04-11T00:34:35.501Z,5.97
2019-04-11T00:35:09.172Z,6.53
2019-04-11T00:35:42.015Z,6.87
2019-04-11T00:36:14.553Z,6.33
2019-04-11T00:36:47.091Z,6.12
2019-04-11T00:37:19.635Z,6.28
2019-04-11T00:37:52.163Z,6.20
2019-04-11T00:38:25.675Z,6.65
2019-04-11T00:38:59.289Z,5.83
2019-04-11T00:39:32.022Z,6.25
2019-04-11T00:40:04.787Z,6.55
2019-04-11T00:40:37.462Z,5.85
2019-04-11T00:41:10.505Z,5.55
2019-04-11T00:41:43.157Z,6.90
2019-04-11T00:42:16.613Z,6.85
2019-04-11T00:42:49.182Z,5.95
2019-04-11T00:43:30.621Z,6.50
2019-04-11T00:43:56.698Z,6.12
2019-04-11T00:44:30.543Z,6.37
2019-04-11T00:45:03.505Z,6.42
2019-04-11T00:45:36.057Z,6.65
2019-04-11T00:46:09.846Z,5.97
2019-04-11T00:46:42.673Z,6.80
2019-04-11T00:47:15.315Z,6.60
2019-04-11T00:47:48.993Z,5.80
2019-04-11T00:48:21.789Z,6.10
2019-04-11T00:48:54.643Z,6.92
2019-04-11T00:49:27.218Z,6.00
2019-04-11T00:50:00.912Z,6.45
2019-04-11T00:50:35.016Z,6.50
2019-04-11T00:51:07.773Z,5.85
2019-04-11T00:51:40.460Z,6.12
2019-04-11T00:52:14.057Z,6.92
2019-04-11T00:52:47.594Z,5.80
2019-04-11T00:53:20.869Z,5.70
2019-04-11T00:53:54.135Z,6.00
2019-04-11T00:54:27.124Z,6.50
2019-04-11T00:54:59.654Z,6.03
2019-04-11T00:55:32.498Z,6.08
2019-04-11T00:56:08.173Z,6.03
2019-04-11T00:56:42.251Z,6.22
2019-04-11T00:57:14.973Z,6.37
2019-04-11T00:57:47.557Z,6.28
2019-04-11T00:58:21.285Z,6.35
2019-04-11T00:58:54.059Z,6.20
2019-04-11T00:59:26.747Z,6.20
2019-04-11T00:59:59.478Z,5.50
2019-04-11T01:00:33.256Z,6.00
2019-04-11T01:01:05.864Z,5.58
2019-04-11T01:01:38.809Z,5.47
2019-04-11T01:02:11.751Z,5.60
2019-04-11T01:02:45.341Z,6.58
2019-04-11T01:03:18.170Z,5.53
2019-04-11T01:03:51.578Z,5.50
2019-04-11T01:04:24.122Z,5.42
2019-04-11T01:04:57.139Z,6.45
2019-04-11T01:05:30.322Z,5.30
2019-04-11T01:06:03.709Z,6.03
2019-04-11T01:06:36.500Z,6.10
2019-04-11T01:07:09.241Z,6.55
2019-04-11T01:07:42.842Z,5.55
2019-04-11T01:08:15.720Z,5.60
2019-04-11T01:08:48.326Z,6.50
2019-04-11T01:09:21.123Z,7.08
2019-04-11T01:09:54.788Z,6.90
2019-04-11T01:10:27.487Z,6.70
2019-04-11T01:11:00.485Z,6.67
2019-04-11T01:11:34.147Z,6.78
2019-04-11T01:12:07.867Z,6.60
2019-04-11T01:12:40.815Z,5.95
2019-04-11T01:13:14.255Z,6.08
2019-04-11T01:13:52.389Z,6.05
2019-04-11T01:14:23.647Z,6.33
2019-04-11T01:14:57.300Z,6.60
2019-04-11T01:15:31.388Z,6.15
2019-04-11T01:16:11.201Z,6.10
2019-04-11T01:16:52.732Z,6.17
2019-04-11T01:17:25.435Z,6.45
2019-04-11T01:17:58.262Z,6.35
2019-04-11T01:18:31.126Z,5.95
2019-04-11T01:19:04.633Z,6.20
2019-04-11T01:19:38.494Z,6.55
2019-04-11T01:20:11.894Z,6.05
2019-04-11T01:20:44.450Z,5.45
2019-04-11T01:21:17.906Z,6.58
2019-04-11T01:21:50.952Z,6.90
2019-04-11T01:22:24.395Z,6.15
2019-04-11T01:22:58.414Z,5.67
2019-04-11T01:23:31.372Z,6.37
2019-04-11T01:24:04.123Z,6.10
2019-04-11T01:24:36.718Z,6.20
2019-04-11T01:25:10.451Z,6.40
2019-04-11T01:25:44.336Z,6.10
2019-04-11T01:26:17.033Z,5.90
2019-04-11T01:26:49.726Z,6.47
2019-04-11T01:27:23.722Z,6.60
2019-04-11T01:27:56.456Z,7.00
2019-04-11T01:28:29.507Z,6.15
2019-04-11T01:29:03.021Z,6.40
2019-04-11T01:29:36.045Z,6.60
2019-04-11T01:30:11.684Z,6.40
2019-04-11T01:30:51.690Z,6.28
2019-04-11T01:31:25.286Z,6.60
2019-04-11T01:32:00.187Z,6.17
2019-04-11T01:32:32.828Z,6.37
2019-04-11T01:33:06.565Z,6.15
2019-04-11T01:33:40.168Z,5.62
2019-04-11T01:34:12.879Z,6.55
2019-04-11T01:34:45.674Z,6.00
2019-04-11T01:35:19.294Z,6.03
2019-04-11T01:35:51.915Z,6.30
2019-04-11T01:36:24.457Z,6.20
2019-04-11T01:36:57.567Z,5.92
2019-04-11T01:37:31.433Z,5.45
2019-04-11T01:38:04.070Z,6.70
2019-04-11T01:38:41.525Z,6.78
2019-04-11T01:39:39.363Z,6.17
2019-04-11T01:40:11.923Z,6.90
2019-04-11T01:40:45.581Z,6.53
2019-04-11T01:41:18.403Z,6.33
2019-04-11T01:41:51.005Z,6.10
2019-04-11T01:42:24.943Z,5.75
2019-04-11T01:42:58.168Z,6.87
2019-04-11T01:43:32.369Z,6.55
2019-04-11T01:44:07.151Z,6.53
2019-04-11T01:44:40.949Z,6.15
2019-04-11T01:45:15.463Z,6.00
2019-04-11T01:45:48.020Z,5.97
2019-04-11T01:46:20.563Z,5.87
2019-04-11T01:46:54.159Z,6.30
2019-04-11T01:47:53.452Z,6.28
2019-04-11T01:48:58.335Z,6.80
2019-04-11T01:49:34.966Z,5.78
2019-04-11T01:50:08.444Z,6.10
2019-04-11T01:50:41.248Z,6.05
2019-04-11T01:51:13.854Z,6.20
2019-04-11T01:51:47.576Z,6.85
2019-04-11T01:52:20.513Z,5.90
2019-04-11T01:52:53.060Z,5.92
2019-04-11T01:53:26.767Z,5.90
2019-04-11T01:53:59.798Z,7.17
2019-04-11T01:54:32.263Z,6.55
2019-04-11T01:55:05.475Z,6.37
2019-04-11T01:55:38.776Z,5.95
2019-04-11T01:56:12.765Z,6.20
2019-04-11T01:56:45.473Z,6.50
2019-04-11T01:57:18.072Z,5.50
2019-04-11T01:57:50.549Z,6.58
2019-04-11T01:58:23.091Z,5.87
2019-04-11T01:58:57.188Z,6.85
2019-04-11T01:59:31.251Z,5.72
2019-04-11T02:00:06.021Z,6.00
2019-04-11T02:00:45.841Z,6.35
2019-04-11T02:01:31.329Z,5.47
2019-04-11T02:02:11.784Z,6.08
2019-04-11T02:02:48.648Z,6.55
2019-04-11T02:03:45.615Z,6.37
2019-04-11T02:04:32.471Z,5.35
2019-04-11T02:05:27.216Z,7.25
2019-04-11T02:06:01.261Z,5.62
2019-04-11T02:06:34.163Z,5.65
2019-04-11T02:07:07.244Z,6.05
2019-04-11T02:07:40.239Z,5.85
2019-04-11T02:08:13.283Z,6.25
2019-04-11T02:08:47.168Z,5.53
2019-04-11T02:09:20.021Z,6.78
2019-04-11T02:09:52.685Z,6.22
2019-04-11T02:10:26.481Z,4.83
2019-04-11T02:10:59.429Z,5.60
2019-04-11T02:11:32.089Z,6.75
2019-04-11T02:12:05.799Z,5.60
2019-04-11T02:12:39.376Z,6.33
2019-04-11T02:13:12.088Z,5.90
2019-04-11T02:13:45.104Z,6.65
2019-04-11T02:14:19.501Z,6.42
2019-04-11T02:14:52.199Z,5.80
2019-04-11T02:15:26.083Z,5.60
2019-04-11T02:16:00.358Z,5.90
2019-04-11T02:16:33.305Z,5.47
2019-04-11T02:17:06.383Z,5.60
2019-04-11T02:17:39.139Z,6.22
2019-04-11T02:18:13.044Z,5.45
2019-04-11T02:18:45.777Z,5.97
2019-04-11T02:19:18.654Z,6.33
2019-04-11T02:19:52.327Z,6.12
2019-04-11T02:20:25.311Z,6.00
2019-04-11T02:20:57.854Z,6.17
2019-04-11T02:21:30.581Z,5.50
2019-04-11T02:22:16.112Z,5.90
2019-04-11T02:22:52.834Z,5.87
2019-04-11T02:23:32.191Z,6.42
2019-04-11T02:24:28.002Z,5.78
2019-04-11T02:25:06.608Z,5.85
2019-04-11T02:25:50.847Z,5.67
2019-04-11T02:26:27.262Z,5.55
2019-04-11T02:27:08.770Z,5.78
2019-04-11T02:27:42.269Z,5.90
2019-04-11T02:28:16.900Z,6.45
2019-04-11T02:28:49.780Z,6.25
2019-04-11T02:29:23.479Z,5.80
2019-04-11T02:29:56.815Z,5.85
2019-04-11T02:30:30.701Z,5.70
2019-04-11T02:31:04.996Z,5.87
2019-04-11T02:31:38.997Z,6.80
2019-04-11T02:32:12.772Z,6.30
2019-04-11T02:32:47.877Z,6.10
2019-04-11T02:33:21.820Z,5.90
2019-04-11T02:33:55.346Z,6.42
2019-04-11T02:34:29.663Z,5.70
2019-04-11T02:35:04.627Z,5.85
2019-04-11T02:35:37.367Z,5.78
2019-04-11T02:36:12.233Z,6.45
2019-04-11T02:36:45.030Z,6.47
2019-04-11T02:37:19.752Z,5.50
2019-04-11T02:37:52.420Z,5.80
2019-04-11T02:38:24.961Z,7.30
2019-04-11T02:39:01.480Z,6.08
2019-04-11T02:39:33.775Z,5.83
2019-04-11T02:40:07.583Z,5.60
2019-04-11T02:40:41.239Z,5.80
2019-04-11T02:41:17.115Z,6.40
2019-04-11T02:41:50.781Z,6.15
2019-04-11T02:42:25.405Z,6.05
2019-04-11T02:42:59.418Z,4.75
2019-04-11T02:43:34.071Z,6.40
2019-04-11T02:44:28.654Z,5.78
2019-04-11T02:44:59.197Z,5.60
2019-04-11T02:45:27.850Z,6.62
2019-04-11T02:46:01.800Z,6.15
2019-04-11T02:46:36.991Z,6.87
2019-04-11T02:47:05.227Z,5.60
2019-04-11T02:47:36.882Z,6.10
2019-04-11T02:48:11.233Z,5.00
2019-04-11T02:48:44.948Z,5.70
2019-04-11T02:49:19.293Z,6.03
2019-04-11T02:49:52.350Z,6.65
2019-04-11T02:50:26.615Z,5.53
2019-04-11T02:51:00.882Z,6.20
2019-04-11T02:51:34.524Z,6.03
2019-04-11T02:52:09.325Z,5.83
2019-04-11T02:52:43.893Z,5.65
2019-04-11T02:53:16.955Z,4.95
2019-04-11T02:53:51.809Z,5.15
2019-04-11T02:54:26.504Z,5.75
2019-04-11T02:55:00.711Z,5.28
2019-04-11T02:55:35.633Z,5.67
2019-04-11T02:56:10.785Z,5.70
2019-04-11T02:56:45.089Z,6.05
2019-04-11T02:57:18.399Z,5.30
2019-04-11T02:57:51.130Z,5.87
2019-04-11T02:58:25.219Z,4.80
2019-04-11T02:58:59.931Z,5.72
2019-04-11T02:59:34.366Z,5.62
2019-04-11T03:00:08.623Z,6.00
2019-04-11T03:00:44.606Z,5.53
2019-04-11T03:01:17.852Z,5.90
2019-04-11T03:01:50.947Z,6.05
2019-04-11T03:02:26.576Z,6.15
2019-04-11T03:02:59.853Z,6.67
2019-04-11T03:03:34.265Z,5.50
2019-04-11T03:04:07.555Z,5.22
2019-04-11T03:04:41.793Z,6.12
2019-04-11T03:05:16.326Z,5.78
2019-04-11T03:05:50.817Z,6.33
2019-04-11T03:06:25.846Z,6.25
2019-04-11T03:07:00.113Z,6.03
2019-04-11T03:07:34.075Z,6.03
2019-04-11T03:08:11.161Z,6.45
2019-04-11T03:08:42.733Z,5.10
2019-04-11T03:09:17.558Z,6.22
2019-04-11T03:09:51.055Z,5.70
2019-04-11T03:10:24.903Z,5.97
2019-04-11T03:10:59.386Z,5.28
2019-04-11T03:11:32.607Z,5.65
2019-04-11T03:12:07.420Z,5.75
2019-04-11T03:12:40.571Z,5.70
2019-04-11T03:13:13.348Z,4.97
2019-04-11T03:13:50.462Z,6.45
2019-04-11T03:14:23.495Z,5.65
2019-04-11T03:15:11.943Z,5.62
2019-04-11T03:15:43.116Z,5.30
2019-04-11T03:16:23.868Z,4.90
2019-04-11T03:16:53.394Z,5.45
2019-04-11T03:17:21.258Z,5.58
2019-04-11T03:17:54.882Z,6.00
2019-04-11T03:18:40.672Z,5.08
2019-04-11T03:19:13.284Z,5.75
2019-04-11T03:19:44.009Z,5.55
2019-04-11T03:20:15.511Z,5.65
2019-04-11T03:20:48.085Z,5.72
2019-04-11T03:21:21.603Z,5.25
2019-04-11T03:21:52.368Z,5.55
2019-04-11T03:22:26.942Z,4.78
2019-04-11T03:23:04.904Z,5.80
2019-04-11T03:23:35.478Z,5.50
2019-04-11T03:24:10.791Z,5.95
2019-04-11T03:24:43.470Z,5.28
2019-04-11T03:25:17.527Z,5.95
2019-04-11T03:25:52.163Z,4.75
2019-04-11T03:26:25.070Z,5.75
2019-04-11T03:27:02.218Z,6.50
2019-04-11T03:27:34.897Z,5.70
2019-04-11T03:28:14.065Z,5.58
2019-04-11T03:28:46.274Z,5.60
2019-04-11T03:29:17.781Z,5.80
2019-04-11T03:29:51.611Z,5.65
2019-04-11T03:30:44.765Z,6.17
2019-04-11T03:31:33.194Z,6.37
2019-04-11T03:32:13.320Z,5.40
2019-04-11T03:32:49.055Z,4.85
2019-04-11T03:34:13.033Z,4.55
2019-04-11T03:36:00.250Z,5.40
2019-04-11T03:37:19.490Z,5.67
2019-04-11T03:37:49.962Z,6.40
2019-04-11T03:38:24.687Z,4.55
2019-04-11T03:38:55.079Z,5.83
2019-04-11T03:39:27.720Z,5.03
2019-04-11T03:39:59.565Z,5.47
2019-04-11T03:40:38.488Z,5.62
2019-04-11T03:41:10.265Z,6.12
2019-04-11T03:41:50.719Z,5.40
2019-04-11T03:42:16.933Z,5.55
2019-04-11T03:42:50.528Z,5.03
2019-04-11T03:43:25.386Z,5.08
2019-04-11T03:43:57.087Z,5.87
2019-04-11T03:44:26.641Z,5.37
2019-04-11T03:45:19.104Z,5.50
2019-04-11T03:45:47.949Z,4.92
2019-04-11T03:46:24.904Z,5.37
2019-04-11T03:46:54.335Z,4.97
2019-04-11T03:47:31.072Z,5.70
2019-04-11T03:48:02.530Z,5.70
2019-04-11T03:48:36.794Z,5.40
2019-04-11T03:49:06.103Z,5.47
2019-04-11T03:49:43.238Z,5.30
2019-04-11T03:50:12.746Z,5.15
2019-04-11T03:50:42.499Z,5.25
2019-04-11T03:51:17.976Z,4.95
2019-04-11T03:51:50.718Z,6.10
2019-04-11T03:52:25.272Z,5.08
2019-04-11T03:53:01.354Z,4.92
2019-04-11T03:53:34.802Z,5.70
2019-04-11T03:54:09.740Z,5.50
2019-04-11T03:54:42.837Z,4.50
2019-04-11T03:55:15.771Z,5.78
2019-04-11T03:55:49.461Z,5.42
2019-04-11T03:56:22.468Z,6.03
2019-04-11T03:56:57.036Z,4.60
2019-04-11T03:57:29.988Z,5.20
2019-04-11T03:58:03.797Z,5.45
2019-04-11T03:58:37.202Z,5.62
2019-04-11T03:59:12.383Z,5.15
2019-04-11T03:59:45.811Z,6.15
2019-04-11T04:00:19.334Z,6.42
2019-04-11T04:00:53.437Z,5.22
2019-04-11T04:01:26.983Z,5.80
2019-04-11T04:02:00.105Z,5.35
2019-04-11T04:02:34.723Z,6.08
2019-04-11T04:03:09.248Z,6.30
2019-04-11T04:03:42.624Z,5.40
2019-04-11T04:04:19.247Z,5.15
2019-04-11T04:04:51.383Z,5.72
2019-04-11T04:05:26.451Z,6.22
2019-04-11T04:06:01.686Z,6.25
2019-04-11T04:06:33.804Z,6.70
2019-04-11T04:07:07.345Z,6.67
2019-04-11T04:07:41.462Z,5.30
2019-04-11T04:08:13.983Z,5.58
2019-04-11T04:08:46.730Z,5.70
2019-04-11T04:09:20.958Z,5.40
2019-04-11T04:09:54.378Z,4.87
2019-04-11T04:10:27.922Z,6.35
2019-04-11T04:11:06.230Z,5.78
2019-04-11T04:11:42.765Z,5.33
2019-04-11T04:12:16.250Z,5.85
2019-04-11T04:12:49.005Z,5.60
2019-04-11T04:13:23.213Z,5.30
2019-04-11T04:14:12.648Z,5.40
2019-04-11T04:14:53.999Z,4.65
2019-04-11T04:15:59.764Z,5.17
2019-04-11T04:16:34.240Z,6.17
2019-04-11T04:17:17.056Z,5.17
2019-04-11T04:18:05.896Z,5.25
2019-04-11T04:19:09.683Z,5.45
2019-04-11T04:19:54.304Z,5.35
2019-04-11T04:20:46.109Z,5.87
2019-04-11T04:21:31.201Z,5.65
2019-04-11T04:22:08.856Z,4.58
2019-04-11T04:22:50.072Z,5.15
2019-04-11T04:23:27.191Z,5.15
2019-04-11T04:24:02.196Z,5.28
2019-04-11T04:24:39.337Z,5.87
2019-04-11T04:25:10.282Z,5.95
2019-04-11T04:25:46.714Z,5.80
2019-04-11T04:26:19.208Z,4.97
2019-04-11T04:26:54.637Z,5.72
2019-04-11T04:27:28.110Z,5.55
2019-04-11T04:28:00.992Z,5.70
2019-04-11T04:28:35.818Z,5.92
2019-04-11T04:29:11.369Z,5.00
2019-04-11T04:29:47.353Z,5.50
2019-04-11T04:30:20.371Z,5.42
2019-04-11T04:30:53.814Z,5.65
2019-04-11T04:31:28.540Z,5.55
2019-04-11T04:32:02.905Z,4.65
2019-04-11T04:32:36.318Z,5.22
2019-04-11T04:33:10.710Z,5.17
2019-04-11T04:33:45.335Z,5.53
2019-04-11T04:34:19.588Z,6.40
2019-04-11T04:34:53.256Z,5.55
2019-04-11T04:35:27.736Z,5.75
2019-04-11T04:36:02.414Z,5.45
2019-04-11T04:36:35.608Z,5.58
2019-04-11T04:37:08.743Z,5.12
2019-04-11T04:37:43.361Z,5.37
2019-04-11T04:38:16.628Z,5.67
2019-04-11T04:38:49.420Z,4.92
2019-04-11T04:39:22.846Z,5.53
2019-04-11T04:40:17.959Z,6.20
2019-04-11T04:40:49.579Z,6.58
2019-04-11T04:41:21.162Z,6.25
2019-04-11T04:41:53.464Z,6.20
2019-04-11T04:42:27.218Z,5.00
2019-04-11T04:42:56.233Z,5.08
2019-04-11T04:43:29.477Z,5.60
2019-04-11T04:44:04.302Z,5.60
2019-04-11T04:44:37.979Z,6.25
2019-04-11T04:45:13.753Z,5.75
2019-04-11T04:46:03.378Z,6.58
2019-04-11T04:46:34.677Z,6.10
2019-04-11T04:47:08.043Z,4.92
2019-04-11T04:47:36.490Z,5.37
2019-04-11T04:48:10.237Z,5.60
2019-04-11T04:48:38.220Z,5.45
2019-04-11T04:49:13.234Z,5.67
2019-04-11T04:49:46.021Z,5.83
2019-04-11T04:50:20.273Z,5.35
2019-04-11T04:50:56.762Z,5.05
2019-04-11T04:51:28.862Z,5.70
2019-04-11T04:52:03.843Z,6.78
2019-04-11T04:52:37.985Z,6.30
2019-04-11T04:53:11.165Z,6.08
2019-04-11T04:53:45.215Z,5.62
2019-04-11T04:54:19.896Z,6.05
2019-04-11T04:54:53.350Z,5.97
2019-04-11T04:55:28.546Z,6.00
2019-04-11T04:56:02.664Z,5.97
2019-04-11T04:56:36.926Z,6.15
2019-04-11T04:57:12.853Z,6.42
2019-04-11T04:57:44.965Z,5.30
2019-04-11T04:58:20.194Z,5.55
2019-04-11T04:58:54.057Z,5.90
2019-04-11T04:59:28.130Z,6.22
2019-04-11T05:00:02.653Z,6.67
2019-04-11T05:00:35.504Z,6.33
2019-04-11T05:01:08.056Z,6.25
2019-04-11T05:01:41.720Z,5.60
2019-04-11T05:02:15.335Z,6.33
2019-04-11T05:02:48.079Z,5.25
2019-04-11T05:03:22.259Z,5.75
2019-04-11T05:03:56.400Z,5.22
2019-04-11T05:04:29.710Z,4.90
2019-04-11T05:05:04.252Z,5.72
2019-04-11T05:05:38.311Z,6.03
2019-04-11T05:06:11.962Z,5.17
2019-04-11T05:06:48.111Z,6.35
2019-04-11T05:07:19.429Z,5.50
2019-04-11T05:07:52.190Z,5.80
2019-04-11T05:08:26.975Z,6.37
2019-04-11T05:09:00.201Z,5.62
2019-04-11T05:09:33.994Z,5.60
2019-04-11T05:10:08.660Z,5.47
2019-04-11T05:10:41.318Z,5.10
2019-04-11T05:11:14.108Z,5.17
2019-04-11T05:11:46.789Z,5.40
2019-04-11T05:12:20.586Z,5.47
2019-04-11T05:12:54.802Z,5.72
2019-04-11T05:13:27.984Z,6.00
2019-04-11T05:14:00.928Z,5.50
2019-04-11T05:14:35.035Z,4.72
2019-04-11T05:15:08.023Z,5.28
2019-04-11T05:15:42.287Z,5.33
2019-04-11T05:16:17.867Z,5.15
2019-04-11T05:16:50.439Z,4.80
2019-04-11T05:17:23.306Z,4.70
2019-04-11T05:17:57.706Z,4.33
2019-04-11T05:18:30.580Z,5.25
2019-04-11T05:19:04.393Z,4.53
2019-04-11T05:19:38.267Z,4.80
2019-04-11T05:20:11.962Z,4.50
2019-04-11T05:20:44.622Z,5.22
2019-04-11T05:21:17.162Z,4.45
2019-04-11T05:21:50.167Z,5.53
2019-04-11T05:22:22.711Z,4.75
2019-04-11T05:22:55.902Z,4.70
2019-04-11T05:23:29.705Z,5.08
2019-04-11T05:24:04.056Z,4.90
2019-04-11T05:24:36.887Z,4.33
2019-04-11T05:25:10.628Z,5.08
2019-04-11T05:25:44.560Z,5.35
2019-04-11T05:26:17.629Z,5.40
2019-04-11T05:26:50.460Z,4.67
2019-04-11T05:27:23.659Z,5.20
2019-04-11T05:27:56.195Z,4.75
2019-04-11T05:28:29.814Z,5.03
2019-04-11T05:29:02.914Z,4.97
2019-04-11T05:29:35.698Z,5.50
2019-04-11T05:30:09.377Z,5.05
2019-04-11T05:30:42.128Z,5.10
2019-04-11T05:31:14.645Z,5.40
2019-04-11T05:31:47.213Z,5.30
2019-04-11T05:32:19.962Z,5.55
2019-04-11T05:32:53.442Z,4.90
2019-04-11T05:33:27.270Z,4.87
2019-04-11T05:33:59.998Z,5.25
2019-04-11T05:34:32.972Z,4.30
2019-04-11T05:35:06.915Z,4.00
2019-04-11T05:35:39.949Z,4.83
2019-04-11T05:36:12.503Z,4.58
2019-04-11T05:36:45.459Z,5.67
2019-04-11T05:37:18.631Z,4.50
2019-04-11T05:37:51.481Z,4.17
2019-04-11T05:38:25.132Z,4.30
2019-04-11T05:38:58.241Z,4.10
2019-04-11T05:39:31.692Z,4.58
2019-04-11T05:40:05.236Z,4.80
2019-04-11T05:40:37.892Z,4.78
2019-04-11T05:41:12.299Z,4.83
2019-04-11T05:41:46.789Z,5.05
2019-04-11T05:42:22.635Z,4.58
2019-04-11T05:42:55.727Z,5.17
2019-04-11T05:43:31.919Z,4.50
2019-04-11T05:44:07.667Z,4.80
2019-04-11T05:44:38.102Z,4.50
2019-04-11T05:45:16.985Z,5.30
2019-04-11T05:45:45.896Z,5.12
2019-04-11T05:46:31.034Z,4.75
2019-04-11T05:46:58.718Z,4.62
2019-04-11T05:47:28.087Z,4.15
2019-04-11T05:48:01.616Z,5.05
2019-04-11T05:48:57.953Z,4.80
2019-04-11T05:49:46.545Z,4.95
2019-04-11T05:50:26.381Z,4.62
2019-04-11T05:51:00.426Z,4.30
2019-04-11T05:51:39.981Z,4.62
2019-04-11T05:52:08.431Z,4.72
2019-04-11T05:52:42.013Z,4.55
2019-04-11T05:53:15.739Z,4.17
2019-04-11T05:53:51.322Z,3.95
2019-04-11T05:54:23.876Z,4.25
2019-04-11T05:55:00.616Z,3.90
2019-04-11T05:55:41.373Z,4.53
2019-04-11T05:56:13.946Z,4.00
2019-04-11T05:56:52.049Z,4.60
2019-04-11T05:57:24.435Z,4.53
2019-04-11T05:57:57.244Z,4.28
2019-04-11T05:58:30.353Z,4.60
2019-04-11T05:59:23.946Z,3.80
2019-04-11T05:59:57.774Z,4.20
2019-04-11T06:00:57.856Z,3.87
2019-04-11T06:01:34.597Z,4.40
2019-04-11T06:02:17.175Z,4.05
2019-04-11T06:02:54.277Z,4.05
2019-04-11T06:03:28.141Z,4.53
2019-04-11T06:04:05.963Z,4.53
2019-04-11T06:04:49.389Z,4.75
2019-04-11T06:05:31.823Z,4.35
2019-04-11T06:06:24.668Z,4.50
2019-04-11T06:07:03.274Z,3.80
2019-04-11T06:07:46.210Z,4.40
2019-04-11T06:08:22.653Z,3.90
2019-04-11T06:08:54.215Z,4.50
2019-04-11T06:09:33.786Z,4.15
2019-04-11T06:10:10.143Z,3.75
2019-04-11T06:11:04.259Z,4.30
2019-04-11T06:12:14.603Z,4.00
2019-04-11T06:13:25.012Z,3.60
2019-04-11T06:14:13.116Z,4.25
2019-04-11T06:14:51.942Z,4.30
2019-04-11T06:15:29.533Z,4.35
2019-04-11T06:16:02.961Z,4.75
2019-04-11T06:16:43.537Z,4.10
2019-04-11T06:17:14.701Z,4.90
2019-04-11T06:17:48.855Z,3.90
2019-04-11T06:18:48.121Z,4.12
2019-04-11T06:19:29.023Z,5.12
2019-04-11T06:20:17.812Z,3.98
2019-04-11T06:20:51.928Z,4.65
2019-04-11T06:21:34.042Z,4.30
2019-04-11T06:22:08.692Z,4.55
2019-04-11T06:22:56.901Z,4.47
2019-04-11T06:23:49.859Z,4.58
2019-04-11T06:24:36.521Z,5.47
2019-04-11T06:25:33.289Z,4.70
2019-04-11T06:26:32.411Z,5.60
2019-04-11T06:27:14.263Z,4.30
2019-04-11T06:27:58.298Z,4.75
2019-04-11T06:28:31.607Z,4.28
2019-04-11T06:29:19.310Z,4.28
2019-04-11T06:29:57.198Z,4.22
2019-04-11T06:30:55.377Z,4.70
2019-04-11T06:31:47.433Z,4.45
2019-04-11T06:32:38.418Z,4.40
2019-04-11T06:33:14.848Z,4.00
2019-04-11T06:33:54.700Z,4.70
2019-04-11T06:34:28.479Z,4.92
2019-04-11T06:35:06.105Z,4.62
2019-04-11T06:36:02.080Z,4.10
2019-04-11T06:36:52.947Z,4.65
2019-04-11T06:37:43.774Z,4.53
2019-04-11T06:38:34.557Z,4.55
2019-04-11T06:39:35.792Z,4.62
2019-04-11T06:40:18.724Z,4.78
2019-04-11T06:40:59.994Z,4.42
2019-04-11T06:41:44.918Z,4.83
2019-04-11T06:42:45.800Z,4.62
2019-04-11T06:43:28.211Z,5.05
2019-04-11T06:44:09.599Z,5.30
2019-04-11T06:45:17.555Z,4.47
2019-04-11T06:46:21.139Z,5.47
2019-04-11T06:47:13.175Z,4.97
2019-04-11T06:48:13.569Z,4.80
2019-04-11T06:49:02.341Z,4.37
2019-04-11T06:49:58.604Z,4.72
2019-04-11T06:50:37.594Z,4.53
2019-04-11T06:51:28.708Z,5.05
2019-04-11T06:52:04.336Z,4.65
2019-04-11T06:52:37.459Z,5.47
2019-04-11T06:53:11.813Z,5.92
2019-04-11T06:54:04.349Z,4.72
2019-04-11T06:54:46.025Z,4.20
2019-04-11T06:55:36.969Z,5.45
2019-04-11T06:56:23.300Z,5.33
2019-04-11T06:56:57.213Z,5.22
2019-04-11T06:57:30.297Z,4.87
2019-04-11T06:58:07.755Z,4.83
2019-04-11T06:58:44.293Z,5.10
2019-04-11T06:59:26.525Z,4.50
2019-04-11T06:59:59.468Z,4.65
2019-04-11T07:00:33.362Z,5.45
2019-04-11T07:01:11.883Z,4.40
2019-04-11T07:01:45.436Z,5.05
2019-04-11T07:02:21.371Z,5.15
2019-04-11T07:02:55.204Z,5.10
2019-04-11T07:03:32.427Z,4.92
2019-04-11T07:04:13.496Z,5.65
2019-04-11T07:04:51.834Z,5.30
2019-04-11T07:05:26.662Z,5.30
2019-04-11T07:06:02.840Z,6.00
2019-04-11T07:06:37.910Z,4.80
2019-04-11T07:07:11.398Z,5.20
2019-04-11T07:07:48.371Z,5.20
2019-04-11T07:08:25.104Z,5.33
2019-04-11T07:09:17.669Z,5.47
2019-04-11T07:09:55.659Z,5.20
2019-04-11T07:10:34.639Z,5.75
2019-04-11T07:11:09.394Z,5.20
2019-04-11T07:11:48.500Z,5.33
2019-04-11T07:12:26.557Z,5.78
2019-04-11T07:13:09.535Z,5.40
2019-04-11T07:13:49.716Z,5.85
2019-04-11T07:14:43.216Z,5.40
2019-04-11T07:15:37.707Z,5.90
2019-04-11T07:16:11.279Z,5.08
2019-04-11T07:17:07.189Z,7.00
2019-04-11T07:17:56.721Z,6.20
2019-04-11T07:18:32.135Z,5.60
2019-04-11T07:19:30.739Z,5.53
2019-04-11T07:20:25.020Z,5.60
2019-04-11T07:21:02.906Z,5.60
2019-04-11T07:21:36.478Z,5.20
2019-04-11T07:22:28.503Z,5.45
2019-04-11T07:23:20.101Z,5.90
2019-04-11T07:24:11.804Z,6.28
2019-04-11T07:25:04.014Z,6.30
2019-04-11T07:25:51.759Z,6.17
2019-04-11T07:26:30.474Z,5.90
2019-04-11T07:27:11.610Z,5.92
2019-04-11T07:27:57.844Z,5.85
2019-04-11T07:28:43.847Z,5.85
2019-04-11T07:29:34.717Z,6.03
2019-04-11T07:30:39.615Z,6.10
2019-04-11T07:31:30.314Z,7.28
2019-04-11T07:32:25.610Z,6.80
2019-04-11T07:33:12.922Z,6.37
2019-04-11T07:34:03.816Z,5.45
2019-04-11T07:34:56.435Z,5.40
2019-04-11T07:35:47.763Z,6.50
2019-04-11T07:36:40.441Z,6.85
2019-04-11T07:37:49.177Z,5.87
2019-04-11T07:38:29.844Z,6.35
2019-04-11T07:39:12.848Z,6.00
2019-04-11T07:40:24.163Z,7.40
2019-04-11T07:41:34.843Z,6.45
2019-04-11T07:42:26.566Z,5.45
2019-04-11T07:43:27.446Z,6.17
2019-04-11T07:44:00.755Z,5.37
2019-04-11T07:44:34.085Z,5.80
2019-04-11T07:45:13.046Z,6.00
2019-04-11T07:46:04.819Z,5.45
2019-04-11T07:46:49.536Z,4.30
2019-04-11T07:47:35.165Z,5.20
2019-04-11T07:48:15.134Z,5.15
2019-04-11T07:48:47.950Z,5.33
2019-04-11T07:49:25.067Z,4.80
2019-04-11T07:50:00.045Z,4.58
2019-04-11T07:50:33.302Z,4.22
2019-04-11T07:51:16.007Z,3.83
2019-04-11T07:51:53.279Z,4.12
2019-04-11T07:52:27.237Z,4.80
2019-04-11T07:53:02.960Z,3.75
2019-04-11T07:53:39.357Z,4.00
2019-04-11T07:54:15.706Z,3.77
2019-04-11T07:54:48.418Z,3.72
2019-04-11T07:55:22.989Z,3.35
2019-04-11T07:55:55.668Z,3.22
2019-04-11T07:56:48.677Z,3.75
2019-04-11T07:57:28.851Z,3.52
2019-04-11T07:58:21.717Z,4.10
2019-04-11T07:58:58.569Z,4.50
2019-04-11T08:00:00.460Z,3.85
2019-04-11T08:00:46.948Z,3.33
2019-04-11T08:01:29.574Z,3.37
2019-04-11T08:02:23.512Z,3.05
2019-04-11T08:03:14.433Z,2.20
2019-04-11T08:04:12.812Z,2.72
2019-04-11T08:05:14.019Z,2.10
2019-04-11T08:06:18.042Z,1.67
2019-04-11T08:07:04.336Z,1.80
2019-04-11T08:07:55.364Z,1.90
2019-04-11T08:09:02.775Z,1.80
2019-04-11T08:09:43.606Z,1.75
2019-04-11T08:10:25.101Z,1.65
2019-04-11T08:11:19.900Z,1.80
2019-04-11T08:11:56.283Z,1.80
2019-04-11T08:12:29.858Z,1.70
2019-04-11T08:13:06.394Z,1.42
2019-04-11T08:13:47.164Z,1.50